sensor_id;sensor_type;location;lat;lon;timestamp;P1;durP1;ratioP1;P2;durP2;ratioP2
80569;SDS011;69923;50.828;4.400;2023-05-15T00:01:07;49.33;;;22.50;;
80569;SDS011;69923;50.828;4.400;2023-05-15T00:03:33;41.80;;;20.85;;
80569;SDS011;69923;50.828;4.400;2023-05-15T00:06:00;49.70;;;22.80;;
80569;SDS011;69923;50.828;4.400;2023-05-15T00:08:26;49.08;;;21.52;;
80569;SDS011;69923;50.828;4.400;2023-05-15T00:10:52;55.30;;;21.77;;
80569;SDS011;69923;50.828;4.400;2023-05-15T00:13:18;48.45;;;21.23;;
80569;SDS011;69923;50.828;4.400;2023-05-15T00:15:45;48.15;;;22.75;;
80569;SDS011;69923;50.828;4.400;2023-05-15T00:18:11;49.70;;;21.05;;
80569;SDS011;69923;50.828;4.400;2023-05-15T00:20:37;50.05;;;22.42;;
80569;SDS011;69923;50.828;4.400;2023-05-15T00:23:03;51.95;;;23.63;;
80569;SDS011;69923;50.828;4.400;2023-05-15T00:25:29;52.88;;;21.67;;
80569;SDS011;69923;50.828;4.400;2023-05-15T00:27:56;55.08;;;23.80;;
80569;SDS011;69923;50.828;4.400;2023-05-15T00:30:22;57.33;;;23.83;;
80569;SDS011;69923;50.828;4.400;2023-05-15T00:32:48;46.67;;;22.30;;
80569;SDS011;69923;50.828;4.400;2023-05-15T00:35:15;50.25;;;23.73;;
80569;SDS011;69923;50.828;4.400;2023-05-15T00:37:41;55.88;;;24.73;;
80569;SDS011;69923;50.828;4.400;2023-05-15T00:40:08;49.15;;;22.98;;
80569;SDS011;69923;50.828;4.400;2023-05-15T00:42:37;54.05;;;23.92;;
80569;SDS011;69923;50.828;4.400;2023-05-15T00:45:04;50.03;;;24.55;;
80569;SDS011;69923;50.828;4.400;2023-05-15T00:47:32;57.03;;;23.83;;
80569;SDS011;69923;50.828;4.400;2023-05-15T00:50:02;59.97;;;25.20;;
80569;SDS011;69923;50.828;4.400;2023-05-15T00:52:30;51.40;;;23.77;;
80569;SDS011;69923;50.828;4.400;2023-05-15T00:54:57;57.08;;;24.60;;
80569;SDS011;69923;50.828;4.400;2023-05-15T00:57:23;50.80;;;23.58;;
80569;SDS011;69923;50.828;4.400;2023-05-15T00:59:51;52.83;;;23.63;;
80569;SDS011;69923;50.828;4.400;2023-05-15T01:02:19;53.05;;;25.23;;
80569;SDS011;69923;50.828;4.400;2023-05-15T01:04:45;56.08;;;22.40;;
80569;SDS011;69923;50.828;4.400;2023-05-15T01:07:11;57.53;;;25.63;;
80569;SDS011;69923;50.828;4.400;2023-05-15T01:09:39;60.10;;;26.48;;
80569;SDS011;69923;50.828;4.400;2023-05-15T01:14:38;51.45;;;24.42;;
80569;SDS011;69923;50.828;4.400;2023-05-15T01:17:05;80.40;;;32.50;;
80569;SDS011;69923;50.828;4.400;2023-05-15T01:19:31;64.53;;;28.98;;
80569;SDS011;69923;50.828;4.400;2023-05-15T01:22:10;76.70;;;35.80;;
80569;SDS011;69923;50.828;4.400;2023-05-15T01:30:22;82.38;;;31.30;;
80569;SDS011;69923;50.828;4.400;2023-05-15T01:32:54;71.85;;;30.15;;
80569;SDS011;69923;50.828;4.400;2023-05-15T01:35:34;56.80;;;27.08;;
80569;SDS011;69923;50.828;4.400;2023-05-15T01:38:29;62.60;;;29.25;;
80569;SDS011;69923;50.828;4.400;2023-05-15T01:41:01;57.45;;;26.27;;
80569;SDS011;69923;50.828;4.400;2023-05-15T01:43:36;52.53;;;23.95;;
80569;SDS011;69923;50.828;4.400;2023-05-15T01:46:06;51.20;;;22.98;;
80569;SDS011;69923;50.828;4.400;2023-05-15T01:48:33;46.45;;;22.52;;
80569;SDS011;69923;50.828;4.400;2023-05-15T01:51:01;49.08;;;21.92;;
80569;SDS011;69923;50.828;4.400;2023-05-15T01:53:30;51.88;;;21.27;;
80569;SDS011;69923;50.828;4.400;2023-05-15T01:55:58;44.95;;;20.63;;
80569;SDS011;69923;50.828;4.400;2023-05-15T01:58:27;44.15;;;20.27;;
80569;SDS011;69923;50.828;4.400;2023-05-15T02:00:54;50.88;;;22.05;;
80569;SDS011;69923;50.828;4.400;2023-05-15T02:03:21;43.70;;;21.08;;
80569;SDS011;69923;50.828;4.400;2023-05-15T02:05:48;47.72;;;21.25;;
80569;SDS011;69923;50.828;4.400;2023-05-15T02:08:17;44.67;;;21.60;;
80569;SDS011;69923;50.828;4.400;2023-05-15T02:10:45;43.60;;;20.42;;
80569;SDS011;69923;50.828;4.400;2023-05-15T02:13:11;42.33;;;19.20;;
80569;SDS011;69923;50.828;4.400;2023-05-15T02:15:39;45.63;;;20.30;;
80569;SDS011;69923;50.828;4.400;2023-05-15T02:18:05;46.13;;;20.77;;
80569;SDS011;69923;50.828;4.400;2023-05-15T02:20:31;42.35;;;20.75;;
80569;SDS011;69923;50.828;4.400;2023-05-15T02:22:57;44.83;;;21.33;;
80569;SDS011;69923;50.828;4.400;2023-05-15T02:28:23;45.88;;;21.13;;
80569;SDS011;69923;50.828;4.400;2023-05-15T02:30:59;40.78;;;18.95;;
80569;SDS011;69923;50.828;4.400;2023-05-15T02:33:37;39.83;;;19.42;;
80569;SDS011;69923;50.828;4.400;2023-05-15T02:36:21;43.30;;;19.83;;
80569;SDS011;69923;50.828;4.400;2023-05-15T02:38:53;40.60;;;19.63;;
80569;SDS011;69923;50.828;4.400;2023-05-15T02:41:22;42.40;;;21.30;;
80569;SDS011;69923;50.828;4.400;2023-05-15T02:43:49;37.95;;;19.17;;
80569;SDS011;69923;50.828;4.400;2023-05-15T02:46:17;40.30;;;19.88;;
80569;SDS011;69923;50.828;4.400;2023-05-15T02:48:45;36.22;;;18.45;;
80569;SDS011;69923;50.828;4.400;2023-05-15T02:51:12;40.47;;;18.70;;
80569;SDS011;69923;50.828;4.400;2023-05-15T02:53:39;38.72;;;21.33;;
80569;SDS011;69923;50.828;4.400;2023-05-15T02:56:07;36.00;;;17.65;;
80569;SDS011;69923;50.828;4.400;2023-05-15T02:58:34;40.03;;;19.35;;
80569;SDS011;69923;50.828;4.400;2023-05-15T03:01:00;37.17;;;18.85;;
80569;SDS011;69923;50.828;4.400;2023-05-15T03:03:28;38.53;;;19.10;;
80569;SDS011;69923;50.828;4.400;2023-05-15T03:05:54;36.17;;;18.63;;
80569;SDS011;69923;50.828;4.400;2023-05-15T03:08:20;34.90;;;19.23;;
80569;SDS011;69923;50.828;4.400;2023-05-15T03:10:47;40.05;;;19.58;;
80569;SDS011;69923;50.828;4.400;2023-05-15T03:13:13;40.15;;;19.00;;
80569;SDS011;69923;50.828;4.400;2023-05-15T03:15:39;38.22;;;18.85;;
80569;SDS011;69923;50.828;4.400;2023-05-15T03:18:07;38.15;;;19.48;;
80569;SDS011;69923;50.828;4.400;2023-05-15T03:20:33;41.80;;;19.55;;
80569;SDS011;69923;50.828;4.400;2023-05-15T03:22:59;39.45;;;19.23;;
80569;SDS011;69923;50.828;4.400;2023-05-15T03:25:26;41.63;;;20.52;;
80569;SDS011;69923;50.828;4.400;2023-05-15T03:27:52;48.92;;;21.20;;
80569;SDS011;69923;50.828;4.400;2023-05-15T03:30:18;41.97;;;20.33;;
80569;SDS011;69923;50.828;4.400;2023-05-15T03:32:45;45.55;;;22.63;;
80569;SDS011;69923;50.828;4.400;2023-05-15T03:35:11;43.40;;;20.55;;
80569;SDS011;69923;50.828;4.400;2023-05-15T03:37:38;40.53;;;19.83;;
80569;SDS011;69923;50.828;4.400;2023-05-15T03:40:04;44.70;;;21.33;;
80569;SDS011;69923;50.828;4.400;2023-05-15T03:42:31;43.33;;;19.85;;
80569;SDS011;69923;50.828;4.400;2023-05-15T03:44:57;43.88;;;20.58;;
80569;SDS011;69923;50.828;4.400;2023-05-15T03:47:24;45.83;;;19.90;;
80569;SDS011;69923;50.828;4.400;2023-05-15T03:49:50;48.22;;;22.10;;
80569;SDS011;69923;50.828;4.400;2023-05-15T03:52:16;44.70;;;21.83;;
80569;SDS011;69923;50.828;4.400;2023-05-15T03:54:42;43.75;;;20.30;;
80569;SDS011;69923;50.828;4.400;2023-05-15T03:57:09;41.42;;;20.98;;
80569;SDS011;69923;50.828;4.400;2023-05-15T03:59:35;41.85;;;19.15;;
80569;SDS011;69923;50.828;4.400;2023-05-15T04:02:01;47.95;;;20.42;;
80569;SDS011;69923;50.828;4.400;2023-05-15T04:04:27;42.55;;;19.52;;
80569;SDS011;69923;50.828;4.400;2023-05-15T04:06:54;41.05;;;18.83;;
80569;SDS011;69923;50.828;4.400;2023-05-15T04:09:20;39.78;;;19.42;;
80569;SDS011;69923;50.828;4.400;2023-05-15T04:11:46;41.60;;;19.05;;
80569;SDS011;69923;50.828;4.400;2023-05-15T04:14:12;40.05;;;19.42;;
80569;SDS011;69923;50.828;4.400;2023-05-15T04:16:39;36.05;;;17.70;;
80569;SDS011;69923;50.828;4.400;2023-05-15T04:19:05;39.83;;;20.33;;
80569;SDS011;69923;50.828;4.400;2023-05-15T04:21:31;42.22;;;19.20;;
80569;SDS011;69923;50.828;4.400;2023-05-15T04:23:57;40.30;;;18.80;;
80569;SDS011;69923;50.828;4.400;2023-05-15T04:26:24;40.30;;;18.40;;
80569;SDS011;69923;50.828;4.400;2023-05-15T04:28:50;44.38;;;20.25;;
80569;SDS011;69923;50.828;4.400;2023-05-15T04:31:16;44.33;;;21.02;;
80569;SDS011;69923;50.828;4.400;2023-05-15T04:33:42;43.38;;;17.98;;
80569;SDS011;69923;50.828;4.400;2023-05-15T04:36:09;43.80;;;20.15;;
80569;SDS011;69923;50.828;4.400;2023-05-15T04:38:35;46.63;;;20.20;;
80569;SDS011;69923;50.828;4.400;2023-05-15T04:41:01;35.63;;;16.98;;
80569;SDS011;69923;50.828;4.400;2023-05-15T04:43:28;40.63;;;20.00;;
80569;SDS011;69923;50.828;4.400;2023-05-15T04:45:54;40.38;;;19.75;;
80569;SDS011;69923;50.828;4.400;2023-05-15T04:48:20;42.03;;;18.67;;
80569;SDS011;69923;50.828;4.400;2023-05-15T04:50:46;36.40;;;17.60;;
80569;SDS011;69923;50.828;4.400;2023-05-15T04:53:13;35.08;;;16.75;;
80569;SDS011;69923;50.828;4.400;2023-05-15T04:55:39;34.40;;;17.33;;
80569;SDS011;69923;50.828;4.400;2023-05-15T04:58:05;39.70;;;18.33;;
80569;SDS011;69923;50.828;4.400;2023-05-15T05:00:31;38.58;;;16.00;;
80569;SDS011;69923;50.828;4.400;2023-05-15T05:02:57;35.00;;;16.25;;
80569;SDS011;69923;50.828;4.400;2023-05-15T05:05:24;39.45;;;15.98;;
80569;SDS011;69923;50.828;4.400;2023-05-15T05:07:50;40.50;;;16.67;;
80569;SDS011;69923;50.828;4.400;2023-05-15T05:10:16;32.72;;;15.38;;
80569;SDS011;69923;50.828;4.400;2023-05-15T05:12:42;42.38;;;17.30;;
80569;SDS011;69923;50.828;4.400;2023-05-15T05:15:09;38.65;;;15.63;;
80569;SDS011;69923;50.828;4.400;2023-05-15T05:17:35;35.42;;;15.93;;
80569;SDS011;69923;50.828;4.400;2023-05-15T05:20:01;34.65;;;16.15;;
80569;SDS011;69923;50.828;4.400;2023-05-15T05:22:29;37.70;;;17.42;;
80569;SDS011;69923;50.828;4.400;2023-05-15T05:24:55;32.13;;;15.82;;
80569;SDS011;69923;50.828;4.400;2023-05-15T05:27:22;39.55;;;17.25;;
80569;SDS011;69923;50.828;4.400;2023-05-15T05:29:48;36.80;;;15.38;;
80569;SDS011;69923;50.828;4.400;2023-05-15T05:32:14;34.00;;;16.08;;
80569;SDS011;69923;50.828;4.400;2023-05-15T05:34:40;30.10;;;13.98;;
80569;SDS011;69923;50.828;4.400;2023-05-15T05:37:06;33.40;;;15.35;;
80569;SDS011;69923;50.828;4.400;2023-05-15T05:39:33;33.20;;;16.38;;
80569;SDS011;69923;50.828;4.400;2023-05-15T05:41:59;35.75;;;15.98;;
80569;SDS011;69923;50.828;4.400;2023-05-15T05:44:25;32.75;;;16.92;;
80569;SDS011;69923;50.828;4.400;2023-05-15T05:46:51;34.15;;;14.90;;
80569;SDS011;69923;50.828;4.400;2023-05-15T05:49:18;35.35;;;17.30;;
80569;SDS011;69923;50.828;4.400;2023-05-15T05:51:44;33.30;;;15.30;;
80569;SDS011;69923;50.828;4.400;2023-05-15T05:54:11;32.75;;;15.82;;
80569;SDS011;69923;50.828;4.400;2023-05-15T05:56:39;36.78;;;17.42;;
80569;SDS011;69923;50.828;4.400;2023-05-15T05:59:07;38.90;;;17.10;;
80569;SDS011;69923;50.828;4.400;2023-05-15T06:01:33;38.72;;;16.23;;
80569;SDS011;69923;50.828;4.400;2023-05-15T06:04:00;35.55;;;15.95;;
80569;SDS011;69923;50.828;4.400;2023-05-15T06:06:26;30.45;;;14.82;;
80569;SDS011;69923;50.828;4.400;2023-05-15T06:08:52;35.10;;;16.55;;
80569;SDS011;69923;50.828;4.400;2023-05-15T06:11:19;38.00;;;16.98;;
80569;SDS011;69923;50.828;4.400;2023-05-15T06:13:45;34.92;;;16.95;;
80569;SDS011;69923;50.828;4.400;2023-05-15T06:16:11;35.30;;;16.63;;
80569;SDS011;69923;50.828;4.400;2023-05-15T06:18:38;34.60;;;16.85;;
80569;SDS011;69923;50.828;4.400;2023-05-15T06:21:04;32.95;;;14.15;;
80569;SDS011;69923;50.828;4.400;2023-05-15T06:23:30;37.17;;;17.20;;
80569;SDS011;69923;50.828;4.400;2023-05-15T06:25:56;28.92;;;15.27;;
80569;SDS011;69923;50.828;4.400;2023-05-15T06:28:22;29.63;;;15.52;;
80569;SDS011;69923;50.828;4.400;2023-05-15T06:30:48;31.50;;;16.35;;
80569;SDS011;69923;50.828;4.400;2023-05-15T06:33:15;30.90;;;16.23;;
80569;SDS011;69923;50.828;4.400;2023-05-15T06:35:41;29.13;;;15.35;;
80569;SDS011;69923;50.828;4.400;2023-05-15T06:38:07;31.00;;;16.50;;
80569;SDS011;69923;50.828;4.400;2023-05-15T06:40:34;29.58;;;15.70;;
80569;SDS011;69923;50.828;4.400;2023-05-15T06:43:00;33.42;;;17.13;;
80569;SDS011;69923;50.828;4.400;2023-05-15T06:45:26;34.33;;;16.70;;
80569;SDS011;69923;50.828;4.400;2023-05-15T06:47:52;28.90;;;15.55;;
80569;SDS011;69923;50.828;4.400;2023-05-15T06:50:19;33.85;;;16.48;;
80569;SDS011;69923;50.828;4.400;2023-05-15T06:52:45;32.10;;;16.45;;
80569;SDS011;69923;50.828;4.400;2023-05-15T06:55:11;30.05;;;17.42;;
80569;SDS011;69923;50.828;4.400;2023-05-15T06:57:37;29.13;;;16.17;;
80569;SDS011;69923;50.828;4.400;2023-05-15T07:00:04;32.85;;;16.83;;
80569;SDS011;69923;50.828;4.400;2023-05-15T07:02:30;26.88;;;15.10;;
80569;SDS011;69923;50.828;4.400;2023-05-15T07:04:56;28.02;;;15.25;;
80569;SDS011;69923;50.828;4.400;2023-05-15T07:07:23;29.90;;;15.45;;
80569;SDS011;69923;50.828;4.400;2023-05-15T07:09:49;30.80;;;16.98;;
80569;SDS011;69923;50.828;4.400;2023-05-15T07:12:15;30.05;;;16.52;;
80569;SDS011;69923;50.828;4.400;2023-05-15T07:14:41;32.03;;;16.25;;
80569;SDS011;69923;50.828;4.400;2023-05-15T07:17:07;30.45;;;15.70;;
80569;SDS011;69923;50.828;4.400;2023-05-15T07:19:34;27.48;;;14.77;;
80569;SDS011;69923;50.828;4.400;2023-05-15T07:22:00;26.75;;;15.27;;
80569;SDS011;69923;50.828;4.400;2023-05-15T07:24:26;28.15;;;15.73;;
80569;SDS011;69923;50.828;4.400;2023-05-15T07:26:52;28.92;;;16.75;;
80569;SDS011;69923;50.828;4.400;2023-05-15T07:29:20;31.35;;;15.75;;
80569;SDS011;69923;50.828;4.400;2023-05-15T07:31:47;27.88;;;16.35;;
80569;SDS011;69923;50.828;4.400;2023-05-15T07:34:13;27.23;;;15.25;;
80569;SDS011;69923;50.828;4.400;2023-05-15T07:36:39;30.20;;;17.02;;
80569;SDS011;69923;50.828;4.400;2023-05-15T07:39:05;29.80;;;16.55;;
80569;SDS011;69923;50.828;4.400;2023-05-15T07:41:32;32.08;;;16.33;;
80569;SDS011;69923;50.828;4.400;2023-05-15T07:43:58;28.70;;;15.95;;
80569;SDS011;69923;50.828;4.400;2023-05-15T07:46:25;30.25;;;16.75;;
80569;SDS011;69923;50.828;4.400;2023-05-15T07:48:51;28.23;;;15.93;;
80569;SDS011;69923;50.828;4.400;2023-05-15T07:51:17;29.33;;;15.52;;
80569;SDS011;69923;50.828;4.400;2023-05-15T07:53:44;29.13;;;16.23;;
80569;SDS011;69923;50.828;4.400;2023-05-15T07:56:10;32.40;;;17.33;;
80569;SDS011;69923;50.828;4.400;2023-05-15T07:58:36;29.85;;;17.17;;
80569;SDS011;69923;50.828;4.400;2023-05-15T08:01:03;31.85;;;17.52;;
80569;SDS011;69923;50.828;4.400;2023-05-15T08:03:29;30.23;;;17.15;;
80569;SDS011;69923;50.828;4.400;2023-05-15T08:05:56;33.90;;;17.45;;
80569;SDS011;69923;50.828;4.400;2023-05-15T08:08:22;31.60;;;17.52;;
80569;SDS011;69923;50.828;4.400;2023-05-15T08:10:48;28.85;;;17.40;;
80569;SDS011;69923;50.828;4.400;2023-05-15T08:13:14;28.25;;;16.70;;
80569;SDS011;69923;50.828;4.400;2023-05-15T08:15:40;29.25;;;16.85;;
80569;SDS011;69923;50.828;4.400;2023-05-15T08:18:07;33.05;;;17.17;;
80569;SDS011;69923;50.828;4.400;2023-05-15T08:20:34;27.95;;;16.98;;
80569;SDS011;69923;50.828;4.400;2023-05-15T08:23:01;32.10;;;16.95;;
80569;SDS011;69923;50.828;4.400;2023-05-15T08:25:27;29.17;;;17.45;;
80569;SDS011;69923;50.828;4.400;2023-05-15T08:27:54;29.00;;;17.27;;
80569;SDS011;69923;50.828;4.400;2023-05-15T08:30:20;29.00;;;16.02;;
80569;SDS011;69923;50.828;4.400;2023-05-15T08:32:46;28.42;;;15.20;;
80569;SDS011;69923;50.828;4.400;2023-05-15T08:35:13;30.38;;;16.88;;
80569;SDS011;69923;50.828;4.400;2023-05-15T08:37:39;33.45;;;17.63;;
80569;SDS011;69923;50.828;4.400;2023-05-15T08:40:06;29.38;;;16.58;;
80569;SDS011;69923;50.828;4.400;2023-05-15T08:45:12;28.63;;;17.08;;
80569;SDS011;69923;50.828;4.400;2023-05-15T08:47:39;32.95;;;18.92;;
80569;SDS011;69923;50.828;4.400;2023-05-15T08:50:08;33.17;;;16.58;;
80569;SDS011;69923;50.828;4.400;2023-05-15T08:52:43;32.42;;;17.65;;
80569;SDS011;69923;50.828;4.400;2023-05-15T08:55:12;30.90;;;17.52;;
80569;SDS011;69923;50.828;4.400;2023-05-15T08:57:39;31.13;;;18.38;;
80569;SDS011;69923;50.828;4.400;2023-05-15T09:00:06;32.10;;;18.70;;
80569;SDS011;69923;50.828;4.400;2023-05-15T09:02:36;31.13;;;16.85;;
80569;SDS011;69923;50.828;4.400;2023-05-15T09:05:04;31.23;;;16.67;;
80569;SDS011;69923;50.828;4.400;2023-05-15T09:07:31;29.52;;;17.45;;
80569;SDS011;69923;50.828;4.400;2023-05-15T09:09:58;31.65;;;17.20;;
80569;SDS011;69923;50.828;4.400;2023-05-15T09:12:25;31.05;;;17.48;;
80569;SDS011;69923;50.828;4.400;2023-05-15T09:15:06;32.28;;;17.48;;
80569;SDS011;69923;50.828;4.400;2023-05-15T09:17:34;27.23;;;15.73;;
80569;SDS011;69923;50.828;4.400;2023-05-15T09:20:02;27.65;;;16.35;;
80569;SDS011;69923;50.828;4.400;2023-05-15T09:22:33;31.77;;;17.88;;
80569;SDS011;69923;50.828;4.400;2023-05-15T09:25:00;30.83;;;17.35;;
80569;SDS011;69923;50.828;4.400;2023-05-15T09:27:28;30.33;;;18.00;;
80569;SDS011;69923;50.828;4.400;2023-05-15T09:29:54;35.20;;;19.20;;
80569;SDS011;69923;50.828;4.400;2023-05-15T09:32:31;32.75;;;17.30;;
80569;SDS011;69923;50.828;4.400;2023-05-15T09:34:58;28.52;;;16.33;;
80569;SDS011;69923;50.828;4.400;2023-05-15T09:37:31;26.73;;;16.92;;
80569;SDS011;69923;50.828;4.400;2023-05-15T09:40:08;26.17;;;15.63;;
80569;SDS011;69923;50.828;4.400;2023-05-15T09:42:35;29.05;;;15.45;;
80569;SDS011;69923;50.828;4.400;2023-05-15T09:45:02;31.30;;;15.88;;
80569;SDS011;69923;50.828;4.400;2023-05-15T09:47:29;26.67;;;15.15;;
80569;SDS011;69923;50.828;4.400;2023-05-15T09:49:56;30.77;;;16.33;;
80569;SDS011;69923;50.828;4.400;2023-05-15T09:52:22;27.60;;;15.30;;
80569;SDS011;69923;50.828;4.400;2023-05-15T09:54:48;29.60;;;15.40;;
80569;SDS011;69923;50.828;4.400;2023-05-15T09:57:19;29.13;;;15.38;;
80569;SDS011;69923;50.828;4.400;2023-05-15T09:59:47;25.92;;;13.60;;
80569;SDS011;69923;50.828;4.400;2023-05-15T10:04:55;25.42;;;14.35;;
80569;SDS011;69923;50.828;4.400;2023-05-15T10:07:34;25.15;;;14.27;;
80569;SDS011;69923;50.828;4.400;2023-05-15T10:10:02;23.20;;;14.52;;
80569;SDS011;69923;50.828;4.400;2023-05-15T10:12:31;21.27;;;13.75;;
80569;SDS011;69923;50.828;4.400;2023-05-15T10:15:00;28.48;;;15.18;;
80569;SDS011;69923;50.828;4.400;2023-05-15T10:17:29;22.13;;;12.82;;
80569;SDS011;69923;50.828;4.400;2023-05-15T10:19:58;22.63;;;13.35;;
80569;SDS011;69923;50.828;4.400;2023-05-15T10:22:28;25.83;;;14.90;;
80569;SDS011;69923;50.828;4.400;2023-05-15T10:25:17;25.75;;;15.38;;
80569;SDS011;69923;50.828;4.400;2023-05-15T10:27:59;26.08;;;14.18;;
80569;SDS011;69923;50.828;4.400;2023-05-15T10:30:27;24.77;;;14.25;;
80569;SDS011;69923;50.828;4.400;2023-05-15T10:32:53;23.90;;;14.40;;
80569;SDS011;69923;50.828;4.400;2023-05-15T10:35:21;29.10;;;14.80;;
80569;SDS011;69923;50.828;4.400;2023-05-15T10:37:48;28.73;;;14.95;;
80569;SDS011;69923;50.828;4.400;2023-05-15T10:40:16;29.73;;;16.05;;
80569;SDS011;69923;50.828;4.400;2023-05-15T10:42:44;29.13;;;15.50;;
80569;SDS011;69923;50.828;4.400;2023-05-15T10:45:11;28.77;;;16.15;;
80569;SDS011;69923;50.828;4.400;2023-05-15T10:47:38;26.48;;;13.85;;
80569;SDS011;69923;50.828;4.400;2023-05-15T10:50:06;29.10;;;14.25;;
80569;SDS011;69923;50.828;4.400;2023-05-15T10:52:37;27.17;;;14.00;;
80569;SDS011;69923;50.828;4.400;2023-05-15T10:55:07;27.60;;;14.80;;
80569;SDS011;69923;50.828;4.400;2023-05-15T10:57:46;27.63;;;13.48;;
80569;SDS011;69923;50.828;4.400;2023-05-15T11:02:49;29.65;;;15.32;;
80569;SDS011;69923;50.828;4.400;2023-05-15T11:05:20;32.33;;;14.98;;
80569;SDS011;69923;50.828;4.400;2023-05-15T11:10:50;30.30;;;14.38;;
80569;SDS011;69923;50.828;4.400;2023-05-15T11:13:17;29.40;;;15.40;;
80569;SDS011;69923;50.828;4.400;2023-05-15T11:15:44;29.45;;;14.55;;
80569;SDS011;69923;50.828;4.400;2023-05-15T11:18:11;31.52;;;15.48;;
80569;SDS011;69923;50.828;4.400;2023-05-15T11:20:39;34.33;;;16.75;;
80569;SDS011;69923;50.828;4.400;2023-05-15T11:23:07;31.80;;;15.65;;
80569;SDS011;69923;50.828;4.400;2023-05-15T11:25:34;34.13;;;17.60;;
80569;SDS011;69923;50.828;4.400;2023-05-15T11:28:03;34.58;;;16.42;;
80569;SDS011;69923;50.828;4.400;2023-05-15T11:30:35;33.25;;;16.38;;
80569;SDS011;69923;50.828;4.400;2023-05-15T11:33:07;36.42;;;16.58;;
80569;SDS011;69923;50.828;4.400;2023-05-15T11:35:39;33.65;;;15.80;;
80569;SDS011;69923;50.828;4.400;2023-05-15T11:38:14;38.85;;;18.35;;
80569;SDS011;69923;50.828;4.400;2023-05-15T11:40:52;35.90;;;17.40;;
80569;SDS011;69923;50.828;4.400;2023-05-15T11:48:38;42.90;;;18.17;;
80569;SDS011;69923;50.828;4.400;2023-05-15T11:51:11;40.10;;;17.88;;
80569;SDS011;69923;50.828;4.400;2023-05-15T11:53:59;37.90;;;17.40;;
80569;SDS011;69923;50.828;4.400;2023-05-15T11:56:26;35.60;;;16.83;;
80569;SDS011;69923;50.828;4.400;2023-05-15T11:58:56;39.05;;;17.75;;
80569;SDS011;69923;50.828;4.400;2023-05-15T12:01:23;34.80;;;16.65;;
80569;SDS011;69923;50.828;4.400;2023-05-15T12:03:50;41.72;;;17.95;;
80569;SDS011;69923;50.828;4.400;2023-05-15T12:06:18;40.95;;;19.63;;
80569;SDS011;69923;50.828;4.400;2023-05-15T12:08:49;42.70;;;18.67;;
80569;SDS011;69923;50.828;4.400;2023-05-15T12:11:16;47.25;;;21.20;;
80569;SDS011;69923;50.828;4.400;2023-05-15T12:13:49;52.30;;;22.45;;
80569;SDS011;69923;50.828;4.400;2023-05-15T12:16:17;46.30;;;19.52;;
80569;SDS011;69923;50.828;4.400;2023-05-15T12:18:51;53.05;;;20.02;;
80569;SDS011;69923;50.828;4.400;2023-05-15T12:21:17;45.67;;;20.77;;
80569;SDS011;69923;50.828;4.400;2023-05-15T12:23:50;46.58;;;20.88;;
80569;SDS011;69923;50.828;4.400;2023-05-15T12:26:17;45.63;;;21.30;;
80569;SDS011;69923;50.828;4.400;2023-05-15T12:28:45;48.97;;;21.50;;
80569;SDS011;69923;50.828;4.400;2023-05-15T12:31:12;42.05;;;18.67;;
80569;SDS011;69923;50.828;4.400;2023-05-15T12:33:41;38.67;;;18.85;;
80569;SDS011;69923;50.828;4.400;2023-05-15T12:36:08;37.80;;;18.02;;
80569;SDS011;69923;50.828;4.400;2023-05-15T12:38:37;38.70;;;18.58;;
80569;SDS011;69923;50.828;4.400;2023-05-15T12:41:04;42.08;;;19.73;;
80569;SDS011;69923;50.828;4.400;2023-05-15T12:43:34;38.95;;;17.98;;
80569;SDS011;69923;50.828;4.400;2023-05-15T12:46:01;39.03;;;17.85;;
80569;SDS011;69923;50.828;4.400;2023-05-15T12:48:28;38.33;;;16.70;;
80569;SDS011;69923;50.828;4.400;2023-05-15T12:50:56;32.47;;;14.30;;
80569;SDS011;69923;50.828;4.400;2023-05-15T12:53:32;31.13;;;14.10;;
80569;SDS011;69923;50.828;4.400;2023-05-15T12:55:58;28.73;;;12.73;;
80569;SDS011;69923;50.828;4.400;2023-05-15T12:58:25;23.00;;;10.82;;
80569;SDS011;69923;50.828;4.400;2023-05-15T13:00:51;16.15;;;7.70;;
80569;SDS011;69923;50.828;4.400;2023-05-15T13:03:19;17.70;;;8.95;;
80569;SDS011;69923;50.828;4.400;2023-05-15T13:05:48;17.27;;;7.43;;
80569;SDS011;69923;50.828;4.400;2023-05-15T13:08:16;14.85;;;6.05;;
80569;SDS011;69923;50.828;4.400;2023-05-15T13:10:44;13.30;;;6.28;;
80569;SDS011;69923;50.828;4.400;2023-05-15T13:13:11;11.65;;;5.63;;
80569;SDS011;69923;50.828;4.400;2023-05-15T13:15:40;13.75;;;5.60;;
80569;SDS011;69923;50.828;4.400;2023-05-15T13:18:09;13.07;;;6.30;;
80569;SDS011;69923;50.828;4.400;2023-05-15T13:20:43;14.10;;;6.13;;
80569;SDS011;69923;50.828;4.400;2023-05-15T13:23:17;13.88;;;5.78;;
80569;SDS011;69923;50.828;4.400;2023-05-15T13:25:45;11.50;;;5.47;;
80569;SDS011;69923;50.828;4.400;2023-05-15T13:28:11;10.02;;;4.53;;
80569;SDS011;69923;50.828;4.400;2023-05-15T13:30:38;12.65;;;5.00;;
80569;SDS011;69923;50.828;4.400;2023-05-15T13:33:05;8.15;;;3.28;;
80569;SDS011;69923;50.828;4.400;2023-05-15T13:35:34;5.32;;;2.50;;
80569;SDS011;69923;50.828;4.400;2023-05-15T13:38:01;4.15;;;2.55;;
80569;SDS011;69923;50.828;4.400;2023-05-15T13:40:27;3.63;;;1.80;;
80569;SDS011;69923;50.828;4.400;2023-05-15T13:42:55;4.20;;;1.73;;
80569;SDS011;69923;50.828;4.400;2023-05-15T13:45:21;4.13;;;1.67;;
80569;SDS011;69923;50.828;4.400;2023-05-15T13:47:47;3.60;;;1.65;;
80569;SDS011;69923;50.828;4.400;2023-05-15T13:50:14;3.53;;;1.38;;
80569;SDS011;69923;50.828;4.400;2023-05-15T13:52:41;3.28;;;1.33;;
80569;SDS011;69923;50.828;4.400;2023-05-15T13:55:08;4.13;;;1.65;;
80569;SDS011;69923;50.828;4.400;2023-05-15T13:57:35;3.72;;;1.50;;
80569;SDS011;69923;50.828;4.400;2023-05-15T14:00:06;5.43;;;1.50;;
80569;SDS011;69923;50.828;4.400;2023-05-15T14:02:37;4.60;;;1.50;;
80569;SDS011;69923;50.828;4.400;2023-05-15T14:05:11;2.85;;;1.27;;
80569;SDS011;69923;50.828;4.400;2023-05-15T14:07:39;5.38;;;1.40;;
80569;SDS011;69923;50.828;4.400;2023-05-15T14:10:05;3.30;;;1.38;;
80569;SDS011;69923;50.828;4.400;2023-05-15T14:12:32;5.53;;;1.85;;
80569;SDS011;69923;50.828;4.400;2023-05-15T14:15:01;5.18;;;1.70;;
80569;SDS011;69923;50.828;4.400;2023-05-15T14:17:27;5.22;;;1.90;;
80569;SDS011;69923;50.828;4.400;2023-05-15T14:19:57;4.78;;;1.63;;
80569;SDS011;69923;50.828;4.400;2023-05-15T14:22:23;5.25;;;1.90;;
80569;SDS011;69923;50.828;4.400;2023-05-15T14:24:50;5.32;;;1.30;;
80569;SDS011;69923;50.828;4.400;2023-05-15T14:27:17;5.70;;;1.83;;
80569;SDS011;69923;50.828;4.400;2023-05-15T14:29:44;5.82;;;1.70;;
80569;SDS011;69923;50.828;4.400;2023-05-15T14:32:12;3.60;;;1.63;;
80569;SDS011;69923;50.828;4.400;2023-05-15T14:34:39;5.20;;;2.30;;
80569;SDS011;69923;50.828;4.400;2023-05-15T14:37:05;6.13;;;1.70;;
80569;SDS011;69923;50.828;4.400;2023-05-15T14:39:31;4.85;;;2.33;;
80569;SDS011;69923;50.828;4.400;2023-05-15T14:41:57;9.55;;;2.13;;
80569;SDS011;69923;50.828;4.400;2023-05-15T14:44:24;4.05;;;1.92;;
80569;SDS011;69923;50.828;4.400;2023-05-15T14:47:03;6.05;;;1.92;;
80569;SDS011;69923;50.828;4.400;2023-05-15T14:49:33;5.57;;;1.88;;
80569;SDS011;69923;50.828;4.400;2023-05-15T14:52:00;8.73;;;3.85;;
80569;SDS011;69923;50.828;4.400;2023-05-15T14:54:27;7.03;;;2.83;;